Latest Weather Observations for Canberra

IDN60801

Issued at 9:02 am EDT Monday 23 January 2017 (issued every 30 minutes, with the page automatically refreshed every 10 minutes)

About weather observations | Map of weather stations | Latest weather observations for NSW | Other Formats
Station Details ID: 070351 Name: CANBERRA AIRPORT Lat: -35.31 Lon: 149.20 Height: 577.05 m
Data from the previous 72 hours. | See also: Recent months at Canberra
Date/Time
EDT
Temp
°C
App
Temp
°C
Dew
Point
°C
Rel
Hum
%
Delta-T
°C
Wind Press
QNH
hPa
Press
MSL
hPa
Rain since
9am
mm
Dir  Spd
km/h
Gust
km/h
Spd
kts
Gust
kts
23/09:00am 21.8 22.5 14.4 63 4.4 NW 4 0 2 0 1015.0 1012.5 0.0
23/08:30am 20.6 20.6 14.3 67 3.8 SSE 7 11 4 6 1015.1 1012.5 0.0
23/08:00am 19.1 19.0 13.9 72 3.1 SE 7 9 4 5 1015.2 1012.6 0.0
23/07:30am 17.7 17.3 14.2 80 2.1 SSE 9 13 5 7 1015.0 1012.4 0.0
23/07:00am 17.0 17.1 13.9 82 1.8 S 6 7 3 4 1014.8 1012.2 0.0
23/06:30am 14.8 14.9 13.8 94 0.6 E 6 7 3 4 1014.7 1012.1 0.0
23/06:00am 14.3 13.9 12.5 89 1.0 NNE 6 9 3 5 1014.5 1011.9 0.0
23/05:30am 15.0 15.7 13.5 91 0.9 E 2 6 1 3 1014.5 1011.9 0.0
23/05:00am 15.1 15.1 13.6 91 0.9 E 6 7 3 4 1014.4 1011.8 0.0
23/04:30am 14.3 13.9 12.5 89 1.0 WSW 6 7 3 4 1014.4 1011.8 0.0
23/04:00am 14.9 14.8 13.4 91 0.9 N 6 7 3 4 1014.4 1011.8 0.0
23/03:30am 15.3 15.6 13.3 88 1.1 ENE 4 9 2 5 1014.7 1012.1 0.0
23/03:00am 15.4 15.3 13.8 90 0.9 E 7 7 4 4 1014.9 1012.3 0.0
23/02:30am 15.5 15.0 13.9 90 0.9 ESE 9 11 5 6 1015.0 1012.4 0.0
23/02:00am 15.7 15.1 13.5 87 1.3 SE 9 11 5 6 1015.1 1012.5 0.0
23/01:30am 15.9 14.6 13.6 86 1.3 ESE 13 15 7 8 1015.2 1012.6 0.0
23/01:00am 17.2 16.2 14.5 84 1.6 SE 13 17 7 9 1015.5 1012.9 0.0
23/12:30am 17.4 16.9 13.7 79 2.2 ESE 9 11 5 6 1015.7 1013.2 0.0
23/12:00am 18.9 18.6 14.4 75 2.7 ESE 9 11 5 6 1016.0 1013.5 0.0
 
Date/Time
EDT
Temp
°C
App
Temp
°C
Dew
Point
°C
Rel
Hum
%
Delta-T
°C
Wind Press
QNH
hPa
Press
MSL
hPa
Rain since
9am
mm
Dir  Spd
km/h
Gust
km/h
Spd
kts
Gust
kts
22/11:30pm 19.2 19.2 14.2 73 3.0 ESE 7 11 4 6 1015.9 1013.4 0.0
22/11:00pm 20.3 20.6 14.4 69 3.5 SSE 6 11 3 6 1015.7 1013.2 0.0
22/10:30pm 20.9 20.6 14.5 67 3.8 ENE 9 15 5 8 1015.7 1013.2 0.0
22/10:00pm 21.4 21.2 14.6 65 4.1 NE 9 13 5 7 1015.6 1013.0 0.0
22/09:30pm 22.3 22.4 14.4 61 4.8 N 7 13 4 7 1015.3 1012.7 0.0
22/09:00pm 23.1 19.6 14.4 58 5.3 E 26 33 14 18 1014.7 1012.1 0.0
22/08:30pm 24.4 20.5 14.5 54 6.0 ENE 28 37 15 20 1014.3 1011.7 0.0
22/08:00pm 26.7 24.4 13.1 43 8.2 N 17 28 9 15 1014.0 1011.4 0.0
22/07:30pm 29.8 26.1 6.5 23 12.7 NNW 15 20 8 11 1013.5 1010.9 0.0
22/07:00pm 30.6 26.8 7.7 24 12.8 NNW 17 24 9 13 1013.2 1010.6 0.0
22/06:30pm 30.8 27.5 7.9 24 12.9 N 15 24 8 13 1013.1 1010.5 0.0
22/06:00pm 31.0 26.5 8.7 25 12.7 NNW 22 30 12 16 1013.0 1010.4 0.0
22/05:30pm 31.5 28.5 9.1 25 12.9 NW 15 28 8 15 1013.2 1010.6 0.0
22/05:00pm 31.8 28.1 8.1 23 13.4 N 17 28 9 15 1013.5 1010.9 0.0
22/04:30pm 31.8 29.7 8.1 23 13.4 NW 9 17 5 9 1013.8 1011.2 0.0
22/04:00pm 31.3 28.1 8.3 24 13.1 WNW 15 26 8 14 1013.8 1011.2 0.0
22/03:30pm 30.4 26.5 7.0 23 12.9 N 17 24 9 13 1014.0 1011.4 0.0
22/03:00pm 31.1 28.4 8.8 25 12.7 WNW 13 28 7 15 1014.5 1011.9 0.0
22/02:30pm 30.0 27.7 9.0 27 12.0 NNW 11 19 6 10 1014.9 1012.3 0.0
22/02:00pm 29.3 26.0 9.4 29 11.4 NW 17 26 9 14 1015.2 1012.6 0.0
22/01:30pm 28.2 25.0 8.5 29 11.0 WNW 15 26 8 14 1015.6 1013.0 0.0
22/01:00pm 26.9 25.2 9.7 34 9.8 W 9 15 5 8 1016.0 1013.5 0.0
22/12:30pm 26.2 24.3 10.4 37 9.1 WNW 11 17 6 9 1016.5 1013.9 0.0
22/12:00pm 24.3 23.0 11.3 44 7.5 WNW 9 15 5 8 1017.0 1014.4 0.0
22/11:30am 23.2 22.0 11.6 48 6.7 NW 9 15 5 8 1017.3 1014.8 0.0
22/11:00am 22.2 21.2 12.2 53 5.8 WNW 9 13 5 7 1017.6 1015.1 0.0
22/10:30am 20.3 19.4 11.2 56 5.1 ESE 7 11 4 6 1018.0 1015.4 0.0
22/10:00am 19.3 18.3 11.1 59 4.6 W 7 11 4 6 1018.3 1015.7 0.0
22/09:30am 19.2 18.4 11.0 59 4.6 SSE 6 13 3 7 1018.6 1016.0 0.0
22/09:00am 18.0 17.1 11.3 65 3.7 SW 7 11 4 6 1018.9 1016.4 0.0
22/08:30am 16.6 16.6 11.1 70 3.0 E 2 7 1 4 1019.1 1016.6 0.0
22/08:00am 16.0 15.6 11.0 72 2.7 SE 4 11 2 6 1018.9 1016.4 0.0
22/07:30am 15.8 14.8 11.0 73 2.6 SSE 7 9 4 5 1018.7 1016.1 0.0
22/07:00am 15.5 14.5 11.1 75 2.4 S 7 9 4 5 1018.7 1016.1 0.0
22/06:30am 15.3 15.8 11.5 78 2.1 CALM 0 9 0 5 1018.4 1015.8 0.0
22/06:00am 15.3 14.6 11.3 77 2.2 NE 6 7 3 4 1018.4 1015.8 0.0
22/05:30am 15.3 14.6 11.3 77 2.2 ENE 6 7 3 4 1018.2 1015.6 0.0
22/05:00am 15.2 13.6 11.6 79 2.0 E 11 15 6 8 1017.8 1015.3 0.0
22/04:30am 15.1 13.5 11.7 80 1.9 ENE 11 15 6 8 1017.6 1015.1 0.0
22/04:00am 15.4 13.5 11.8 79 2.0 ENE 13 17 7 9 1017.5 1015.0 0.0
22/03:30am 15.6 13.8 12.0 79 2.0 E 13 17 7 9 1017.5 1015.0 0.0
22/03:00am 15.8 14.0 12.0 78 2.1 E 13 15 7 8 1017.6 1015.1 0.0
22/02:30am 15.9 13.6 11.7 76 2.3 E 15 20 8 11 1017.8 1015.3 0.0
22/02:00am 16.0 14.1 11.8 76 2.3 ESE 13 17 7 9 1017.8 1015.3 0.0
22/01:30am 15.7 14.6 11.9 78 2.1 ESE 9 13 5 7 1018.0 1015.4 0.0
22/01:00am 15.3 14.2 11.9 80 1.9 E 9 13 5 7 1018.0 1015.4 0.0
22/12:32am 15.2 14.1 11.8 80 1.9 E 9 13 5 7 1018.2 1015.6 0.0
22/12:30am 15.2 14.1 11.8 80 1.9 E 9 13 5 7 1018.2 1015.6 0.0
22/12:00am 15.4 13.8 11.6 78 2.1 ESE 11 13 6 7 1018.1 1015.5 0.0
 
Date/Time
EDT
Temp
°C
App
Temp
°C
Dew
Point
°C
Rel
Hum
%
Delta-T
°C
Wind Press
QNH
hPa
Press
MSL
hPa
Rain since
9am
mm
Dir  Spd
km/h
Gust
km/h
Spd
kts
Gust
kts
21/11:47pm 15.3 13.7 11.7 79 2.0 ESE 11 19 6 10 1018.1 1015.5 0.0
21/11:30pm 15.2 14.0 11.6 79 2.0 ESE 9 13 5 7 1018.0 1015.4 0.0
21/11:00pm 15.4 13.8 11.4 77 2.2 ESE 11 17 6 9 1017.5 1015.0 0.0
21/10:30pm 15.9 13.8 11.3 74 2.5 E 13 20 7 11 1017.4 1014.9 0.0
21/10:00pm 16.3 13.5 11.2 72 2.8 ESE 17 30 9 16 1017.3 1014.8 0.0
21/09:30pm 16.7 14.2 11.2 70 3.1 E 15 28 8 15 1016.8 1014.2 0.0
21/09:00pm 17.4 12.8 11.0 66 3.5 E 26 37 14 20 1016.0 1013.5 0.0
21/08:30pm 18.6 14.0 11.2 62 4.1 E 26 37 14 20 1015.2 1012.6 0.0
21/08:00pm 20.3 14.6 11.2 56 5.1 E 32 43 17 23 1014.5 1011.9 0.0
21/07:30pm 22.6 17.0 11.4 49 6.4 ENE 32 43 17 23 1013.5 1010.9 0.0
21/07:00pm 24.7 18.8 10.6 41 8.1 E 32 43 17 23 1012.5 1009.8 0.0
21/06:30pm 26.8 20.6 10.1 35 9.6 E 33 44 18 24 1011.6 1009.0 0.0
21/06:15pm 28.0 22.7 9.8 32 10.4 ENE 28 39 15 21 1011.4 1008.8 0.0
21/06:00pm 30.2 27.2 6.1 22 13.1 SW 11 17 6 9 1011.1 1008.4 0.0
21/05:30pm 30.3 27.2 5.6 21 13.3 N 11 17 6 9 1011.1 1008.4 0.0
21/05:00pm 30.6 28.2 7.1 23 13.1 SW 9 19 5 10 1011.3 1008.7 0.0
21/04:30pm 29.8 27.5 5.8 22 13.0 WSW 7 13 4 7 1011.4 1008.8 0.0
21/04:00pm 30.2 27.4 6.8 23 12.9 SSW 11 15 6 8 1011.4 1008.8 0.0
21/03:30pm 28.8 25.7 5.6 23 12.4 W 11 17 6 9 1011.6 1009.0 0.0
21/03:00pm 28.4 24.9 5.3 23 12.3 W 13 19 7 10 1011.7 1009.1 0.0
21/02:30pm 28.6 24.5 4.2 21 12.8 WSW 15 20 8 11 1011.6 1009.0 0.0
21/02:00pm 27.1 24.0 3.6 22 12.1 SW 9 17 5 9 1011.7 1009.1 0.0
21/01:30pm 26.0 23.6 7.1 30 10.2 W 9 15 5 8 1011.8 1009.2 0.0
21/01:00pm 25.1 22.9 7.7 33 9.5 S 9 13 5 7 1012.0 1009.4 0.0
21/12:30pm 24.8 22.0 8.7 36 8.9 WSW 13 22 7 12 1012.3 1009.7 0.0
21/12:00pm 23.2 20.5 8.9 40 7.9 WSW 13 19 7 10 1012.3 1009.7 0.0
21/11:30am 23.3 21.4 10.4 44 7.3 WSW 11 17 6 9 1012.6 1009.9 0.0
21/11:00am 21.5 19.7 8.1 42 7.2 N 7 9 4 5 1012.6 1009.9 0.0
21/10:30am 20.3 18.3 7.3 43 6.8 WNW 7 11 4 6 1012.7 1010.1 0.0
21/10:00am 19.3 17.2 6.8 44 6.5 SSW 7 13 4 7 1012.7 1010.1 0.0
21/09:30am 18.3 16.2 6.5 46 6.0 ESE 7 11 4 6 1012.5 1009.8 0.0
21/09:00am 16.9 13.6 6.4 50 5.3 SSE 13 17 7 9 1012.5 1009.8 2.2
21/08:30am 15.6 11.9 6.1 53 4.7 SE 15 20 8 11 1012.2 1009.6 2.2
21/08:00am 14.6 12.3 7.6 63 3.6 SE 9 13 5 7 1011.9 1009.3 2.2
21/07:30am 12.9 10.6 7.4 69 2.8 SSE 9 13 5 7 1011.7 1009.1 2.2
21/07:00am 11.8 9.0 6.9 72 2.4 SE 11 15 6 8 1011.1 1008.4 2.2
21/06:30am 9.7 7.1 6.2 79 1.7 SE 9 13 5 7 1010.5 1007.9 2.2
21/06:00am 9.8 7.1 5.6 75 2.0 SSE 9 13 5 7 1010.0 1007.4 2.2
21/05:30am 10.9 7.9 6.1 72 2.3 SSE 11 15 6 8 1009.5 1006.8 2.2
21/05:00am 11.0 8.4 6.0 71 2.4 SSE 9 15 5 8 1009.0 1006.3 2.2
21/04:30am 12.4 9.8 6.2 66 3.0 S 9 13 5 7 1008.5 1005.9 2.2
21/04:00am 11.4 9.4 6.1 70 2.6 ESE 6 11 3 6 1008.1 1005.5 2.2
21/03:30am 12.0 8.7 6.3 68 2.8 SSE 13 17 7 9 1007.9 1005.2 2.2
21/03:00am 13.1 8.6 6.0 62 3.5 SSE 19 28 10 15 1007.2 1004.5 2.2
21/02:30am 14.0 9.5 6.1 59 3.9 SE 19 26 10 14 1006.8 1004.2 2.2
21/02:00am 13.8 10.4 5.9 59 3.9 SSE 13 19 7 10 1007.5 1004.8 2.2
21/01:30am 14.7 10.2 6.3 57 4.2 SSE 19 28 10 15 1006.8 1004.2 2.2
21/01:00am 15.3 10.8 6.8 57 4.3 SSE 20 33 11 18 1006.0 1003.3 2.2
21/12:30am 16.0 9.6 7.0 55 4.6 SSE 30 39 16 21 1005.8 1003.1 2.2
21/12:00am 16.4 10.8 7.3 55 4.7 SE 26 37 14 20 1005.3 1002.6 2.2
 
Date/Time
EDT
Temp
°C
App
Temp
°C
Dew
Point
°C
Rel
Hum
%
Delta-T
°C
Wind Press
QNH
hPa
Press
MSL
hPa
Rain since
9am
mm
Dir  Spd
km/h
Gust
km/h
Spd
kts
Gust
kts
20/11:30pm 17.3 12.6 7.6 53 5.0 SSE 22 32 12 17 1004.8 1002.1 2.2
20/11:00pm 17.9 14.0 8.5 54 5.0 SSE 19 32 10 17 1004.4 1001.7 2.2
20/10:30pm 19.2 13.5 9.7 54 5.2 S 30 39 16 21 1003.6 1000.9 2.2
20/10:00pm 20.8 16.2 11.2 54 5.5 S 26 43 14 23 1002.5 999.8 2.2
20/09:59pm 20.9 17.2 11.5 55 5.4 S 22 43 12 23 1002.5 999.8 2.2
20/09:30pm 21.3 20.3 13.5 61 4.6 W 11 15 6 8 1001.2 998.5 2.2
20/09:00pm 22.3 20.3 12.8 55 5.6 W 15 17 8 9 1000.5 997.8 2.2
20/08:30pm 24.2 19.3 10.1 41 8.0 WSW 26 35 14 19 999.7 996.9 2.2
20/08:00pm 24.6 20.9 9.3 38 8.6 SW 19 26 10 14 998.9 996.2 2.2
20/07:30pm 26.7 23.3 9.1 33 9.9 WSW 17 26 9 14 998.0 995.2 2.2
20/07:00pm 26.9 23.0 13.3 43 8.3 W 26 35 14 19 996.8 994.0 2.2
20/06:30pm 27.3 23.8 13.3 42 8.5 WNW 24 33 13 18 996.2 993.4 2.2
20/06:00pm 28.2 24.6 14.1 42 8.7 WNW 26 37 14 20 995.5 992.7 2.2
20/05:30pm 28.1 25.7 16.4 49 7.4 NW 24 33 13 18 995.2 992.4 2.2
20/05:00pm 27.6 26.0 19.1 59 5.6 NW 26 33 14 18 995.2 992.4 2.2
20/04:30pm 26.7 25.2 20.3 68 4.3 WNW 28 37 15 20 995.4 992.6 2.2
20/04:00pm 24.6 23.5 21.1 81 2.4 NW 28 41 15 22 995.1 992.3 2.2
20/03:30pm 25.7 24.6 20.3 72 3.6 NW 26 54 14 29 994.6 991.8 2.0
20/03:00pm 24.0 21.7 20.5 81 2.3 NW 33 50 18 27 994.7 991.9 2.0
20/02:30pm 22.9 21.8 21.0 89 1.3 NNW 28 39 15 21 995.1 992.3 2.0
20/02:17pm 22.7 22.0 21.0 90 1.1 NW 26 37 14 20 995.5 992.7 2.0
20/02:00pm 22.5 22.0 20.8 90 1.1 NNW 24 33 13 18 995.5 992.7 1.6
20/01:49pm 22.5 22.3 20.6 89 1.3 NW 22 37 12 20 996.0 993.2 1.4
20/01:37pm 22.6 22.6 20.1 86 1.6 NNW 20 32 11 17 996.2 993.4 1.2
20/01:30pm 23.1 22.5 19.7 81 2.2 NNW 22 39 12 21 996.1 993.3 1.2
20/01:00pm 23.3 21.9 18.8 76 2.9 NW 24 32 13 17 996.6 993.8 1.2
20/12:30pm 23.0 20.0 18.7 77 2.8 NNW 32 43 17 23 996.8 994.0 1.2
20/12:00pm 24.0 20.7 19.3 75 3.1 NNW 35 48 19 26 997.3 994.6 1.2
20/11:30am 22.1 18.1 18.5 80 2.3 NNW 37 52 20 28 998.0 995.2 1.2
20/11:02am 21.1 17.7 18.9 87 1.4 NNW 35 57 19 31 998.5 995.7 1.2
20/11:00am 21.6 18.8 19.5 88 1.4 NNW 33 46 18 25 998.6 995.8 1.2
20/10:30am 18.8 17.1 17.3 91 0.9 NNW 22 33 12 18 999.4 996.7 1.2
20/10:00am 17.8 19.6 16.5 92 0.8 NNW 2 9 1 5 1000.1 997.3 1.2
20/09:30am 17.5 18.2 16.0 91 0.9 WNW 7 11 4 6 1001.0 998.3 0.6

Other Formats:

Comma delimited format used in spreadsheet applications
http://www.bom.gov.au/fwo/IDN60801/IDN60801.94926.axf

JavaScript Object Notation format (JSON) in row-major order
http://www.bom.gov.au/fwo/IDN60801/IDN60801.94926.json